Time;durP1;ratioP1;P1;durP2;ratioP2;P2;SDS_P1;SDS_P2;PMS_P1;PMS_P2;Temp;Humidity;BMP_temperature;BMP_pressure;BME280_temperature;BME280_humidity;BME280_pressure;Samples;Min_cycle;Max_cycle;Signal;HPM_P1;HPM_P2
2022/09/30 00:00:05;;;;;;;3.50;2.55;;;17.20;71.30;;;;;;5029915;28;20651;-67
2022/09/30 00:02:34;;;;;;;2.58;2.22;;;17.20;71.30;;;;;;5029518;28;20173;-67
2022/09/30 00:05:00;;;;;;;2.78;2.58;;;17.20;71.30;;;;;;5013160;28;20749;-67
2022/09/30 00:07:25;;;;;;;2.60;2.40;;;17.20;71.30;;;;;;5028867;28;20196;-68
2022/09/30 00:09:51;;;;;;;3.20;2.38;;;17.20;71.30;;;;;;5029553;28;20196;-67
2022/09/30 00:12:17;;;;;;;2.70;2.38;;;17.30;71.40;;;;;;5013247;28;20184;-67
2022/09/30 00:14:43;;;;;;;2.47;2.20;;;17.20;71.30;;;;;;5029582;28;20588;-67
2022/09/30 00:17:08;;;;;;;2.35;2.15;;;17.20;71.30;;;;;;5012976;28;20224;-68
2022/09/30 00:19:34;;;;;;;2.80;2.30;;;17.20;71.30;;;;;;5013193;28;20229;-68
2022/09/30 00:22:00;;;;;;;4.03;3.63;;;17.20;71.30;;;;;;5013250;28;20199;-67
2022/09/30 00:24:25;;;;;;;2.72;2.53;;;17.20;71.30;;;;;;5022390;28;20231;-67
2022/09/30 00:26:51;;;;;;;3.28;2.95;;;17.20;71.30;;;;;;5031309;28;20184;-68
2022/09/30 00:29:17;;;;;;;2.90;2.60;;;17.20;71.30;;;;;;5032677;28;20191;-67
2022/09/30 00:31:43;;;;;;;2.65;2.42;;;17.30;71.40;;;;;;5032601;28;20188;-67
2022/09/30 00:34:11;;;;;;;2.90;2.60;;;17.20;71.20;;;;;;5015982;28;20207;-68
2022/09/30 00:36:50;;;;;;;2.83;2.63;;;17.20;71.20;;;;;;5033717;28;20184;-68
2022/09/30 00:39:26;;;;;;;3.05;2.67;;;17.20;71.30;;;;;;5020580;28;20234;-67
2022/09/30 00:41:59;;;;;;;3.67;2.92;;;17.20;71.30;;;;;;5031077;28;20588;-67
2022/09/30 00:44:53;;;;;;;2.70;2.50;;;17.20;71.30;;;;;;5015516;28;20288;-67
2022/09/30 00:47:27;;;;;;;2.95;2.70;;;17.20;71.30;;;;;;5026686;28;20196;-68
2022/09/30 00:50:03;;;;;;;2.60;2.40;;;17.20;71.20;;;;;;5012602;28;20180;-67
2022/09/30 00:52:31;;;;;;;3.08;2.47;;;17.20;71.20;;;;;;5012445;28;20183;-67
2022/09/30 00:55:01;;;;;;;2.88;2.58;;;17.20;71.30;;;;;;4996035;28;20250;-67
2022/09/30 00:57:28;;;;;;;2.65;2.45;;;17.20;71.20;;;;;;5012691;28;20200;-68
2022/09/30 00:59:54;;;;;;;2.75;2.47;;;17.20;71.20;;;;;;5012043;28;20202;-68
2022/09/30 01:02:20;;;;;;;2.35;2.10;;;17.20;71.30;;;;;;5012329;28;20271;-67
2022/09/30 01:04:46;;;;;;;2.67;2.20;;;17.20;71.30;;;;;;4995755;28;20211;-68
2022/09/30 01:07:13;;;;;;;2.47;2.25;;;17.20;71.20;;;;;;4996196;28;20185;-68
2022/09/30 01:09:42;;;;;;;2.58;2.13;;;17.20;71.30;;;;;;5013205;28;20184;-68
2022/09/30 01:12:19;;;;;;;2.78;2.20;;;17.20;71.20;;;;;;5013291;28;20180;-67
2022/09/30 01:14:49;;;;;;;2.90;2.30;;;17.20;71.30;;;;;;5000217;28;20218;-68
2022/09/30 01:17:49;;;;;;;2.17;1.98;;;17.20;71.20;;;;;;5023451;28;20210;-68
2022/09/30 01:20:52;;;;;;;1.95;1.80;;;17.20;71.20;;;;;;5031539;28;20172;-68
2022/09/30 01:23:41;;;;;;;2.08;1.90;;;17.20;71.10;;;;;;5031942;28;20221;-67
2022/09/30 01:26:49;;;;;;;2.17;1.98;;;17.20;71.20;;;;;;5031550;28;20183;-68
2022/09/30 01:29:39;;;;;;;1.70;1.60;;;17.20;71.20;;;;;;5031404;28;20183;-67
2022/09/30 01:32:32;;;;;;;2.03;1.83;;;17.20;71.10;;;;;;5031626;28;20660;-67
2022/09/30 01:35:14;;;;;;;2.00;1.90;;;17.20;71.20;;;;;;5032595;28;20251;-68
2022/09/30 01:38:11;;;;;;;2.15;1.90;;;17.20;71.20;;;;;;5031393;28;20203;-68
2022/09/30 01:41:04;;;;;;;2.33;1.83;;;17.20;71.20;;;;;;5014832;28;20191;-67
2022/09/30 01:43:51;;;;;;;1.90;1.80;;;17.20;71.10;;;;;;5031453;28;20254;-67
2022/09/30 01:46:32;;;;;;;1.70;1.60;;;17.20;71.10;;;;;;5025726;28;20577;-67
2022/09/30 01:49:11;;;;;;;1.67;1.58;;;17.20;71.10;;;;;;5030208;28;20183;-68
2022/09/30 01:51:56;;;;;;;2.20;1.90;;;17.20;71.10;;;;;;5047931;28;20175;-68
2022/09/30 01:54:57;;;;;;;1.90;1.80;;;17.20;71.20;;;;;;5031089;28;20213;-67
2022/09/30 01:57:30;;;;;;;1.90;1.70;;;17.20;71.20;;;;;;5031154;28;20225;-68
2022/09/30 02:00:07;;;;;;;1.70;1.60;;;17.20;71.10;;;;;;5031253;28;20176;-68
2022/09/30 02:02:47;;;;;;;1.80;1.70;;;17.20;71.10;;;;;;5048049;28;20205;-68
2022/09/30 02:05:43;;;;;;;2.08;1.70;;;17.20;71.10;;;;;;5066797;22;20272;-66
2022/09/30 02:08:32;;;;;;;1.80;1.70;;;17.20;71.10;;;;;;5078863;28;20228;-65
2022/09/30 02:11:09;;;;;;;1.60;1.50;;;17.20;71.10;;;;;;5067751;28;20191;-66
2022/09/30 02:14:15;;;;;;;2.28;1.73;;;17.20;71.10;;;;;;5066033;28;20173;-65
2022/09/30 02:17:09;;;;;;;2.13;1.63;;;17.20;71.00;;;;;;5047957;28;20200;-66
2022/09/30 02:19:50;;;;;;;1.63;1.52;;;17.20;71.10;;;;;;5052147;28;20634;-66
2022/09/30 02:22:23;;;;;;;2.08;1.88;;;17.20;71.10;;;;;;5051097;28;20225;-66
2022/09/30 02:24:58;;;;;;;1.98;1.73;;;17.20;71.10;;;;;;5024281;28;20214;-65
2022/09/30 02:27:39;;;;;;;2.03;1.70;;;17.10;71.00;;;;;;5040338;28;20203;-65
2022/09/30 02:30:08;;;;;;;1.95;1.85;;;17.20;71.00;;;;;;5015012;28;20191;-66
2022/09/30 02:32:44;;;;;;;1.42;1.33;;;17.10;70.90;;;;;;5045877;28;20228;-66
2022/09/30 02:35:22;;;;;;;1.88;1.65;;;17.10;70.90;;;;;;5047531;28;20205;-66
2022/09/30 02:37:55;;;;;;;2.33;2.00;;;17.10;70.90;;;;;;5054703;28;20198;-64
2022/09/30 02:40:49;;;;;;;1.83;1.67;;;17.10;70.90;;;;;;5054085;28;20198;-65
2022/09/30 02:43:19;;;;;;;1.48;1.38;;;17.10;71.00;;;;;;5051377;28;20198;-66
2022/09/30 02:46:21;;;;;;;2.15;1.63;;;17.10;71.00;;;;;;5034553;28;20211;-66
2022/09/30 02:49:03;;;;;;;2.00;1.63;;;17.10;70.90;;;;;;5034678;28;20186;-66
2022/09/30 02:51:55;;;;;;;1.73;1.63;;;17.10;70.80;;;;;;5034546;28;20171;-65
2022/09/30 02:54:40;;;;;;;1.80;1.70;;;17.10;70.80;;;;;;5018135;28;20199;-66
2022/09/30 02:57:51;;;;;;;1.90;1.70;;;17.10;70.90;;;;;;5034618;28;20179;-66
2022/09/30 03:00:17;;;;;;;1.60;1.50;;;17.10;70.90;;;;;;5034418;28;20183;-66
2022/09/30 03:02:43;;;;;;;1.55;1.30;;;17.10;70.80;;;;;;5035495;28;20168;-66
2022/09/30 03:05:10;;;;;;;1.83;1.70;;;17.10;70.80;;;;;;5017578;28;20219;-66
2022/09/30 03:07:37;;;;;;;1.70;1.60;;;17.10;70.80;;;;;;5034355;28;20202;-65
2022/09/30 03:10:15;;;;;;;1.60;1.50;;;17.10;70.80;;;;;;5037542;28;20195;-65
2022/09/30 03:13:17;;;;;;;7.55;5.13;;;17.10;70.90;;;;;;5051266;28;20186;-66
2022/09/30 03:16:00;;;;;;;3.47;2.50;;;17.10;70.80;;;;;;5053907;28;20309;-66
2022/09/30 03:18:35;;;;;;;8.00;5.47;;;17.10;70.90;;;;;;5037613;28;20244;-66
2022/09/30 03:21:25;;;;;;;4.90;3.40;;;17.10;70.80;;;;;;5037089;28;20186;-66
2022/09/30 03:24:13;;;;;;;4.38;3.78;;;17.10;70.80;;;;;;5053761;28;20266;-66
2022/09/30 03:27:21;;;;;;;6.20;4.68;;;17.10;70.70;;;;;;5053913;28;20689;-66
2022/09/30 03:30:02;;;;;;;4.90;4.07;;;17.10;70.70;;;;;;5053364;28;20198;-66
2022/09/30 03:33:05;;;;;;;5.15;3.88;;;17.10;70.80;;;;;;5054877;28;20175;-66
2022/09/30 03:36:00;;;;;;;5.00;3.95;;;17.10;70.80;;;;;;5050345;28;20222;-66
2022/09/30 03:38:51;;;;;;;5.20;3.72;;;17.10;70.60;;;;;;5054770;28;20210;-66
2022/09/30 03:41:35;;;;;;;4.65;3.83;;;17.10;70.50;;;;;;5046341;28;20222;-66
2022/09/30 03:44:14;;;;;;;4.47;3.63;;;17.10;70.60;;;;;;5054310;28;20167;-66
2022/09/30 03:46:49;;;;;;;4.65;3.58;;;17.10;70.60;;;;;;5052473;28;20217;-66
2022/09/30 03:49:22;;;;;;;4.30;3.50;;;17.10;70.60;;;;;;5036301;28;20217;-66
2022/09/30 03:51:48;;;;;;;4.70;3.50;;;17.10;70.50;;;;;;5051890;28;20248;-66
2022/09/30 03:54:15;;;;;;;4.18;3.38;;;17.10;70.20;;;;;;5054497;28;20182;-66
2022/09/30 03:56:42;;;;;;;4.20;3.58;;;17.10;70.40;;;;;;5036893;28;20646;-66
2022/09/30 03:59:27;;;;;;;3.83;3.40;;;17.10;70.00;;;;;;5036558;28;20222;-66
2022/09/30 04:01:54;;;;;;;4.30;3.38;;;17.00;70.00;;;;;;5053072;28;20190;-66
2022/09/30 04:04:19;;;;;;;3.35;2.95;;;17.10;70.10;;;;;;5036679;28;20186;-67
2022/09/30 04:06:45;;;;;;;3.92;3.53;;;17.00;70.00;;;;;;5036211;28;20187;-66
2022/09/30 04:09:12;;;;;;;4.22;3.33;;;17.00;70.00;;;;;;5036017;28;20621;-66
2022/09/30 04:11:37;;;;;;;3.50;3.17;;;17.00;70.00;;;;;;5052783;28;20186;-66
2022/09/30 04:14:04;;;;;;;3.13;2.83;;;17.00;70.10;;;;;;5052967;28;20183;-66
2022/09/30 04:16:31;;;;;;;3.88;3.22;;;17.00;70.10;;;;;;5052816;28;20251;-65
2022/09/30 04:18:58;;;;;;;4.20;3.03;;;17.00;70.00;;;;;;5052540;28;20213;-65
2022/09/30 04:21:27;;;;;;;3.90;3.47;;;17.00;70.00;;;;;;5052884;28;20206;-65
2022/09/30 04:23:54;;;;;;;6.03;3.30;;;17.00;70.00;;;;;;5052746;28;20232;-66
2022/09/30 04:26:19;;;;;;;3.88;3.47;;;17.00;70.10;;;;;;5035895;28;20206;-66
2022/09/30 04:28:45;;;;;;;3.85;3.28;;;17.00;70.00;;;;;;5036350;28;20187;-66
2022/09/30 04:31:14;;;;;;;4.50;3.47;;;17.00;69.90;;;;;;5036065;28;20186;-65
2022/09/30 04:33:39;;;;;;;3.30;2.88;;;17.00;69.70;;;;;;5069115;28;20189;-65
2022/09/30 04:36:06;;;;;;;3.25;2.95;;;17.00;69.70;;;;;;5052069;28;20210;-66
2022/09/30 04:38:33;;;;;;;3.15;2.63;;;17.00;69.70;;;;;;5051055;28;20218;-65
2022/09/30 04:41:02;;;;;;;3.63;2.33;;;17.00;69.70;;;;;;5032390;28;20168;-65
2022/09/30 04:43:28;;;;;;;2.67;2.35;;;17.00;70.40;;;;;;5032673;28;20206;-66
2022/09/30 04:45:55;;;;;;;3.85;2.88;;;17.00;69.40;;;;;;5032548;28;20215;-66
2022/09/30 04:48:21;;;;;;;3.50;2.90;;;17.00;69.40;;;;;;5048883;28;20277;-65
2022/09/30 04:50:48;;;;;;;3.15;2.55;;;17.00;69.50;;;;;;5031949;28;20191;-65
2022/09/30 04:53:15;;;;;;;3.47;2.67;;;17.00;69.20;;;;;;5031856;28;20195;-65
2022/09/30 04:55:41;;;;;;;2.55;2.28;;;17.00;69.40;;;;;;5015406;28;20218;-65
2022/09/30 04:58:07;;;;;;;3.28;2.67;;;17.00;69.60;;;;;;5031908;28;20206;-65
2022/09/30 05:00:33;;;;;;;2.80;2.50;;;17.00;69.40;;;;;;5015690;28;20191;-66
2022/09/30 05:02:59;;;;;;;2.70;2.30;;;16.90;69.30;;;;;;5032247;28;20187;-66
2022/09/30 05:05:25;;;;;;;3.08;2.60;;;16.90;69.50;;;;;;5031741;28;20721;-66
2022/09/30 05:07:51;;;;;;;2.97;2.63;;;17.00;69.70;;;;;;5033105;28;20182;-66
2022/09/30 05:10:16;;;;;;;3.67;2.30;;;17.00;69.70;;;;;;5015285;28;20221;-66
2022/09/30 05:12:44;;;;;;;3.05;2.75;;;17.00;69.50;;;;;;5032051;28;20184;-65
2022/09/30 05:15:10;;;;;;;2.97;2.67;;;16.90;69.40;;;;;;5031532;28;20214;-67
2022/09/30 05:17:36;;;;;;;3.20;2.70;;;16.90;69.20;;;;;;5030541;28;20215;-65
2022/09/30 05:20:04;;;;;;;2.85;2.50;;;16.90;69.50;;;;;;5014253;28;20721;-66
2022/09/30 05:22:29;;;;;;;3.35;2.53;;;16.90;69.30;;;;;;5047808;28;20187;-66
2022/09/30 05:24:55;;;;;;;2.95;2.70;;;17.00;69.40;;;;;;5030296;28;20618;-66
2022/09/30 05:27:22;;;;;;;4.22;2.70;;;16.90;69.10;;;;;;5030965;28;20187;-66
2022/09/30 05:29:48;;;;;;;3.53;2.80;;;16.90;69.00;;;;;;5032030;28;20202;-66
2022/09/30 05:32:14;;;;;;;2.83;2.63;;;16.90;68.80;;;;;;5030976;28;20187;-66
2022/09/30 05:34:40;;;;;;;2.97;2.40;;;17.00;69.00;;;;;;5030948;28;20250;-65
2022/09/30 05:37:08;;;;;;;3.72;2.55;;;16.90;68.80;;;;;;5030844;28;20190;-65
2022/09/30 05:39:34;;;;;;;2.88;2.58;;;16.90;68.80;;;;;;5030680;28;20191;-65
2022/09/30 05:42:00;;;;;;;2.70;2.50;;;16.90;68.60;;;;;;5031102;28;20176;-66
2022/09/30 05:44:26;;;;;;;3.05;2.75;;;16.90;68.60;;;;;;5030601;28;20189;-66
2022/09/30 05:46:52;;;;;;;2.80;2.35;;;16.90;68.60;;;;;;5030921;28;20175;-66
2022/09/30 05:49:17;;;;;;;2.72;2.42;;;16.90;68.60;;;;;;5047011;28;20198;-66
2022/09/30 05:51:43;;;;;;;2.78;2.58;;;16.90;68.50;;;;;;5031901;28;20194;-65
2022/09/30 05:54:10;;;;;;;2.47;2.28;;;16.90;68.80;;;;;;5049304;28;20182;-66
2022/09/30 05:56:39;;;;;;;2.70;2.30;;;16.90;68.70;;;;;;5050658;28;20221;-66
2022/09/30 05:59:06;;;;;;;2.55;2.35;;;16.90;68.80;;;;;;5050283;28;20209;-65
2022/09/30 06:01:32;;;;;;;2.90;2.42;;;16.90;68.80;;;;;;5067199;28;20187;-66
2022/09/30 06:03:58;;;;;;;4.28;2.97;;;16.90;68.90;;;;;;5067205;28;20269;-66
2022/09/30 06:06:25;;;;;;;3.17;2.65;;;16.90;68.90;;;;;;5049411;28;20297;-66
2022/09/30 06:08:51;;;;;;;2.80;2.47;;;16.90;69.00;;;;;;5050641;28;20210;-65
2022/09/30 06:11:22;;;;;;;4.65;3.75;;;16.90;69.00;;;;;;5049832;28;20191;-66
2022/09/30 06:13:48;;;;;;;2.70;2.50;;;16.90;68.90;;;;;;5067212;28;20196;-66
2022/09/30 06:16:17;;;;;;;3.10;2.40;;;16.90;69.00;;;;;;5050278;28;20212;-66
2022/09/30 06:18:44;;;;;;;2.75;2.40;;;16.90;69.00;;;;;;5066911;28;20212;-66
2022/09/30 06:21:14;;;;;;;3.33;3.03;;;17.00;69.00;;;;;;5033561;28;20190;-66
2022/09/30 06:23:40;;;;;;;3.42;3.03;;;16.90;69.00;;;;;;5050102;28;20190;-66
2022/09/30 06:26:10;;;;;;;3.75;2.95;;;17.00;69.00;;;;;;5067119;28;20238;-66
2022/09/30 06:28:36;;;;;;;3.47;2.70;;;17.00;69.00;;;;;;5051695;28;20681;-66
2022/09/30 06:31:05;;;;;;;3.65;2.88;;;16.90;68.90;;;;;;5049989;28;20256;-65
2022/09/30 06:33:31;;;;;;;3.50;2.53;;;17.00;69.10;;;;;;5051494;28;20291;-66
2022/09/30 06:35:57;;;;;;;4.65;2.67;;;17.00;69.00;;;;;;5051203;28;20202;-65
2022/09/30 06:38:24;;;;;;;2.83;2.63;;;17.00;69.00;;;;;;5046562;28;20206;-66
2022/09/30 06:40:50;;;;;;;2.95;2.22;;;17.00;69.10;;;;;;5013580;28;20682;-66
2022/09/30 06:43:17;;;;;;;2.70;2.42;;;17.00;69.10;;;;;;5013824;28;20175;-66
2022/09/30 06:45:46;;;;;;;2.95;2.40;;;17.00;69.10;;;;;;5046919;28;20200;-66
2022/09/30 06:48:13;;;;;;;4.15;2.53;;;17.00;69.20;;;;;;5030168;28;20293;-66
2022/09/30 06:50:39;;;;;;;3.30;2.92;;;16.90;69.00;;;;;;5013566;28;20241;-66
2022/09/30 06:53:07;;;;;;;2.42;2.22;;;17.00;69.10;;;;;;5013808;28;20194;-65
2022/09/30 06:55:38;;;;;;;4.65;2.75;;;17.00;69.10;;;;;;5046639;28;20199;-66
2022/09/30 06:58:10;;;;;;;3.25;2.50;;;17.00;69.10;;;;;;5029893;28;20215;-66
2022/09/30 07:00:36;;;;;;;2.92;2.65;;;17.00;69.10;;;;;;5030268;28;20203;-66
2022/09/30 07:03:04;;;;;;;3.72;2.90;;;17.00;69.10;;;;;;5046552;28;20179;-66
2022/09/30 07:05:30;;;;;;;3.63;3.03;;;17.00;69.20;;;;;;5030060;28;20207;-66
2022/09/30 07:07:57;;;;;;;3.22;2.90;;;17.00;69.10;;;;;;5030029;28;20191;-66
2022/09/30 07:10:23;;;;;;;3.75;2.85;;;17.00;69.10;;;;;;5029805;28;20265;-66
2022/09/30 07:12:51;;;;;;;3.22;2.92;;;17.00;69.10;;;;;;5029966;28;20195;-66
2022/09/30 07:15:22;;;;;;;3.40;2.80;;;17.00;69.10;;;;;;5029602;28;20207;-65
2022/09/30 07:17:57;;;;;;;3.00;2.70;;;17.00;69.20;;;;;;5032646;28;20215;-66
2022/09/30 07:20:24;;;;;;;3.05;2.70;;;17.00;69.20;;;;;;5033336;28;20194;-66
2022/09/30 07:22:49;;;;;;;3.30;2.75;;;17.00;69.20;;;;;;5033553;28;20267;-65
2022/09/30 07:25:16;;;;;;;3.30;2.72;;;17.00;69.30;;;;;;5033250;28;20246;-66
2022/09/30 07:27:43;;;;;;;3.40;2.95;;;17.00;69.30;;;;;;5033246;28;20187;-66
2022/09/30 07:30:09;;;;;;;3.25;2.80;;;17.00;69.30;;;;;;5049877;28;20235;-64
2022/09/30 07:32:36;;;;;;;3.00;2.63;;;17.00;69.40;;;;;;5033284;28;20562;-66
2022/09/30 07:35:02;;;;;;;2.67;2.40;;;17.00;69.40;;;;;;5033232;28;20211;-65
2022/09/30 07:37:31;;;;;;;3.03;2.58;;;17.00;69.40;;;;;;5033228;28;20246;-66
2022/09/30 07:39:57;;;;;;;3.22;2.53;;;17.00;69.40;;;;;;5016369;28;20194;-66
2022/09/30 07:42:23;;;;;;;2.95;2.65;;;17.00;69.40;;;;;;5016496;28;20278;-66
2022/09/30 07:44:50;;;;;;;4.32;2.80;;;17.00;69.50;;;;;;5016453;28;20235;-66
2022/09/30 07:47:17;;;;;;;2.95;2.65;;;17.10;69.60;;;;;;5032950;28;20183;-65
2022/09/30 07:49:44;;;;;;;3.10;2.80;;;17.00;69.40;;;;;;5049479;28;20270;-66
2022/09/30 07:52:11;;;;;;;2.78;2.50;;;17.00;69.50;;;;;;5016333;28;20651;-66
2022/09/30 07:54:39;;;;;;;2.70;2.42;;;17.00;69.50;;;;;;5032853;28;20290;-66
2022/09/30 07:57:05;;;;;;;2.80;2.30;;;17.00;69.60;;;;;;5049431;28;20241;-66
2022/09/30 07:59:36;;;;;;;3.45;2.55;;;17.00;70.20;;;;;;5033608;28;20195;-65
2022/09/30 08:02:03;;;;;;;2.60;2.40;;;17.10;69.70;;;;;;5049565;28;20237;-67
2022/09/30 08:07:04;;;;;;;2.75;2.30;;;17.10;69.70;;;;;;5011331;28;20267;-68
2022/09/30 08:09:30;;;;;;;2.67;2.33;;;17.10;69.70;;;;;;5012476;28;20188;-69
2022/09/30 08:11:56;;;;;;;2.97;2.30;;;17.10;69.70;;;;;;4996776;28;20250;-68
2022/09/30 08:14:26;;;;;;;2.25;2.05;;;17.10;69.80;;;;;;5012515;28;20192;-69
2022/09/30 08:16:54;;;;;;;2.40;2.20;;;17.10;69.80;;;;;;5032800;28;20217;-69
2022/09/30 08:19:23;;;;;;;2.65;2.45;;;17.10;69.80;;;;;;5032123;28;20247;-69
2022/09/30 08:21:52;;;;;;;2.58;2.28;;;17.10;69.80;;;;;;5032395;28;20191;-69
2022/09/30 08:24:18;;;;;;;2.67;2.33;;;17.10;69.80;;;;;;5048887;28;20187;-68
2022/09/30 08:26:44;;;;;;;2.47;2.22;;;17.10;69.80;;;;;;5032421;28;20210;-69
2022/09/30 08:29:12;;;;;;;2.10;1.75;;;17.00;69.70;;;;;;5031679;28;20183;-68
2022/09/30 08:31:39;;;;;;;2.72;2.05;;;17.10;69.80;;;;;;5048730;28;20195;-69
2022/09/30 08:34:05;;;;;;;2.28;2.08;;;17.10;69.80;;;;;;5048933;28;20183;-69
2022/09/30 08:36:31;;;;;;;2.45;2.25;;;17.10;69.80;;;;;;5033205;28;20210;-69
2022/09/30 08:38:57;;;;;;;2.50;2.30;;;17.10;69.80;;;;;;5048690;28;20211;-69
2022/09/30 08:42:26;;;;;;;2.60;1.98;;;17.00;69.70;;;;;;5048030;28;20240;-69
2022/09/30 08:45:11;;;;;;;2.30;2.10;;;17.10;69.80;;;;;;5048378;28;20698;-69
2022/09/30 08:47:47;;;;;;;2.20;2.00;;;17.10;69.80;;;;;;5031715;28;20255;-69
2022/09/30 08:50:49;;;;;;;2.70;2.22;;;17.10;69.80;;;;;;5015268;28;20237;-69
2022/09/30 08:53:29;;;;;;;2.35;2.03;;;17.10;69.80;;;;;;5032040;28;20269;-68
2022/09/30 08:56:01;;;;;;;2.45;2.22;;;17.10;69.80;;;;;;5031592;28;20242;-69
2022/09/30 08:58:38;;;;;;;2.05;1.75;;;17.10;69.80;;;;;;5048162;28;20261;-69
2022/09/30 09:01:27;;;;;;;1.85;1.75;;;17.10;69.80;;;;;;5031323;28;20179;-68
2022/09/30 09:03:54;;;;;;;2.00;1.80;;;17.10;69.80;;;;;;5031679;28;20183;-69
2022/09/30 09:06:29;;;;;;;2.33;2.05;;;17.10;69.80;;;;;;5047954;28;20239;-69
2022/09/30 09:09:56;;;;;;;2.30;2.05;;;17.10;69.80;;;;;;5031540;28;20237;-69
2022/09/30 09:12:43;;;;;;;1.92;1.75;;;17.10;69.80;;;;;;4970675;28;20332;-69
2022/09/30 09:15:33;;;;;;;2.83;1.98;;;17.10;69.80;;;;;;4955008;28;20213;-69
2022/09/30 09:18:26;;;;;;;4.10;1.83;;;17.10;69.80;;;;;;5009213;28;20235;-70
2022/09/30 09:21:19;;;;;;;1.73;1.63;;;17.10;69.80;;;;;;5030940;28;20191;-69
2022/09/30 09:23:47;;;;;;;1.65;1.50;;;17.10;69.80;;;;;;5014115;28;20195;-69
2022/09/30 09:26:15;;;;;;;1.70;1.60;;;17.10;69.80;;;;;;5031213;28;20217;-69
2022/09/30 09:29:07;;;;;;;2.67;2.00;;;17.10;69.80;;;;;;5031021;28;20184;-69
2022/09/30 09:31:33;;;;;;;1.85;1.70;;;17.20;69.90;;;;;;5014548;28;20201;-69
2022/09/30 09:34:08;;;;;;;2.05;1.80;;;17.10;69.80;;;;;;5014474;28;20274;-68
2022/09/30 09:37:15;;;;;;;2.08;1.88;;;17.20;69.90;;;;;;5030862;28;20211;-68
2022/09/30 09:40:17;;;;;;;2.05;1.60;;;17.10;69.80;;;;;;5014272;28;20202;-68
2022/09/30 09:43:29;;;;;;;1.60;1.50;;;17.20;69.90;;;;;;5031007;28;20209;-68
2022/09/30 09:46:12;;;;;;;1.65;1.55;;;17.10;69.80;;;;;;4995594;28;20219;-68
2022/09/30 09:48:38;;;;;;;1.63;1.52;;;17.20;69.90;;;;;;5030694;28;20192;-68
2022/09/30 09:51:35;;;;;;;1.58;1.48;;;17.20;69.90;;;;;;5014168;28;20282;-68
2022/09/30 09:54:03;;;;;;;2.33;1.60;;;17.20;69.90;;;;;;5030921;28;20187;-67
2022/09/30 09:56:32;;;;;;;2.40;1.50;;;17.20;69.90;;;;;;5014384;28;20218;-68
2022/09/30 09:59:14;;;;;;;1.80;1.70;;;17.20;69.90;;;;;;5030542;28;20210;-68
2022/09/30 10:01:50;;;;;;;1.60;1.50;;;17.20;69.90;;;;;;5030634;28;20191;-68
2022/09/30 10:04:26;;;;;;;1.60;1.50;;;17.20;69.90;;;;;;5031537;28;20248;-68
2022/09/30 10:07:13;;;;;;;2.90;1.58;;;17.20;69.90;;;;;;5030687;28;20214;-68
2022/09/30 10:09:41;;;;;;;1.75;1.65;;;17.20;69.90;;;;;;5047444;28;20638;-68
2022/09/30 10:12:07;;;;;;;1.70;1.50;;;17.20;69.90;;;;;;5031095;28;20221;-68
2022/09/30 10:14:44;;;;;;;1.40;1.30;;;17.20;69.90;;;;;;5014826;28;20254;-68
2022/09/30 10:17:34;;;;;;;1.58;1.48;;;17.20;69.90;;;;;;5047523;28;20190;-69
2022/09/30 10:20:15;;;;;;;2.00;1.50;;;17.20;69.90;;;;;;5030874;28;20183;-68
2022/09/30 10:22:41;;;;;;;1.23;1.10;;;17.20;69.90;;;;;;5014664;28;20191;-68
2022/09/30 10:25:13;;;;;;;1.75;1.65;;;17.20;69.90;;;;;;5047513;28;20294;-68
2022/09/30 10:28:10;;;;;;;1.65;1.55;;;17.20;69.90;;;;;;5013651;28;20184;-68
2022/09/30 10:30:48;;;;;;;1.30;1.20;;;17.20;69.90;;;;;;5012601;28;20202;-68
2022/09/30 10:33:22;;;;;;;1.52;1.30;;;17.20;69.60;;;;;;5019927;28;20242;-68
2022/09/30 10:35:59;;;;;;;1.58;1.48;;;17.20;69.80;;;;;;5035756;28;20202;-67
2022/09/30 10:38:28;;;;;;;1.60;1.50;;;17.20;69.90;;;;;;5019808;28;20250;-68
2022/09/30 10:40:55;;;;;;;2.03;1.48;;;17.20;69.80;;;;;;5010904;28;20184;-68
2022/09/30 10:43:43;;;;;;;1.40;1.30;;;17.20;69.60;;;;;;5011236;28;20188;-68
2022/09/30 10:46:09;;;;;;;1.48;1.20;;;17.20;69.60;;;;;;5013968;28;20690;-68
2022/09/30 10:48:37;;;;;;;1.80;1.50;;;17.20;69.40;;;;;;5035385;28;20234;-67
2022/09/30 10:51:20;;;;;;;1.88;1.48;;;17.20;69.40;;;;;;5014072;28;20196;-68
2022/09/30 10:53:45;;;;;;;1.58;1.48;;;17.20;69.50;;;;;;5035584;28;20258;-67
2022/09/30 10:56:11;;;;;;;2.35;1.30;;;17.20;69.60;;;;;;5031170;28;20302;-67
2022/09/30 10:58:55;;;;;;;1.50;1.40;;;17.20;69.60;;;;;;5017315;28;20211;-68
2022/09/30 11:01:39;;;;;;;1.60;1.40;;;17.20;69.50;;;;;;5048955;28;20191;-68
2022/09/30 11:04:30;;;;;;;1.80;1.70;;;17.20;69.60;;;;;;5014531;28;20239;-68
2022/09/30 11:07:25;;;;;;;2.10;1.60;;;17.30;70.50;;;;;;5043134;28;20215;-68
2022/09/30 11:10:26;;;;;;;1.52;1.38;;;17.20;69.80;;;;;;5030582;28;20181;-68
2022/09/30 11:13:24;;;;;;;1.80;1.70;;;17.20;69.80;;;;;;5034168;28;20191;-68
2022/09/30 11:16:30;;;;;;;1.55;1.45;;;17.20;69.80;;;;;;5047481;28;20243;-68
2022/09/30 11:19:14;;;;;;;2.47;1.90;;;17.20;69.90;;;;;;5022806;28;20207;-68
2022/09/30 11:21:54;;;;;;;2.47;1.83;;;17.20;69.90;;;;;;5045997;28;20203;-68
2022/09/30 11:24:47;;;;;;;3.60;2.38;;;17.20;69.90;;;;;;5046348;28;20278;-68
2022/09/30 11:27:51;;;;;;;2.28;1.90;;;17.30;70.00;;;;;;5030312;28;20188;-68
2022/09/30 11:30:39;;;;;;;3.00;2.22;;;17.30;69.90;;;;;;4999782;28;20202;-68
2022/09/30 11:33:41;;;;;;;3.35;2.25;;;17.30;70.00;;;;;;5047561;28;20191;-69
2022/09/30 11:37:01;;;;;;;3.55;2.88;;;17.30;69.70;;;;;;5023797;28;20200;-69
2022/09/30 11:39:45;;;;;;;3.13;2.38;;;17.20;69.80;;;;;;4998036;28;20227;-68
2022/09/30 11:42:40;;;;;;;3.55;2.15;;;17.30;69.90;;;;;;4996844;28;20192;-68
2022/09/30 11:45:38;;;;;;;3.25;2.47;;;17.30;69.80;;;;;;4997047;28;20212;-68
2022/09/30 11:49:00;;;;;;;2.83;2.08;;;17.30;70.60;;;;;;5029759;28;20180;-68
2022/09/30 11:51:56;;;;;;;2.65;2.10;;;17.30;69.90;;;;;;4988276;28;20287;-68
2022/09/30 11:54:55;;;;;;;3.05;2.20;;;17.30;69.90;;;;;;5013001;28;20722;-68
2022/09/30 11:57:57;;;;;;;3.90;2.88;;;17.30;69.80;;;;;;5013296;28;20709;-68
2022/09/30 12:00:22;;;;;;;2.78;2.38;;;17.30;70.00;;;;;;5012669;28;20183;-68
2022/09/30 12:03:18;;;;;;;2.58;2.35;;;17.30;70.00;;;;;;5011982;28;20563;-69
2022/09/30 12:05:53;;;;;;;2.88;2.30;;;17.30;70.00;;;;;;5012869;28;20235;-68
2022/09/30 12:08:35;;;;;;;3.47;2.22;;;17.30;69.90;;;;;;5013237;28;20605;-68
2022/09/30 12:11:27;;;;;;;4.10;2.47;;;17.30;69.90;;;;;;5012478;28;20223;-68
2022/09/30 12:14:06;;;;;;;2.83;2.30;;;17.30;69.80;;;;;;5021729;28;20181;-68
2022/09/30 12:16:36;;;;;;;2.55;2.35;;;17.30;69.80;;;;;;5020448;28;20214;-68
2022/09/30 12:19:20;;;;;;;2.97;2.15;;;17.30;69.70;;;;;;5029522;28;20224;-68
2022/09/30 12:21:57;;;;;;;2.05;1.63;;;17.30;69.60;;;;;;5022924;28;20180;-68
2022/09/30 12:24:49;;;;;;;2.60;1.75;;;17.30;69.80;;;;;;5021708;28;20179;-68
2022/09/30 12:27:32;;;;;;;2.15;1.95;;;17.30;69.80;;;;;;4999459;28;20250;-69
2022/09/30 12:30:19;;;;;;;2.28;2.08;;;17.30;69.90;;;;;;5029679;28;20206;-68
2022/09/30 12:33:22;;;;;;;3.10;2.05;;;17.30;69.70;;;;;;5038892;28;20179;-68
2022/09/30 12:36:25;;;;;;;2.38;2.10;;;17.30;69.90;;;;;;5037526;28;20206;-68
2022/09/30 12:39:37;;;;;;;1.85;1.50;;;17.30;70.00;;;;;;5047775;28;20207;-68
2022/09/30 12:42:34;;;;;;;2.20;1.80;;;17.30;70.00;;;;;;5021367;28;20187;-68
2022/09/30 12:45:42;;;;;;;2.53;1.75;;;17.30;70.00;;;;;;5032374;28;20214;-68
2022/09/30 12:48:19;;;;;;;2.58;1.67;;;17.30;69.60;;;;;;5020849;28;20222;-68
2022/09/30 12:50:51;;;;;;;2.30;1.95;;;17.30;70.00;;;;;;5044454;28;20179;-68
2022/09/30 12:53:50;;;;;;;2.47;1.65;;;17.30;69.90;;;;;;5022016;28;20230;-68
2022/09/30 12:56:17;;;;;;;2.25;1.67;;;17.30;70.00;;;;;;5020569;28;20204;-68
2022/09/30 12:58:50;;;;;;;2.90;2.05;;;17.30;70.00;;;;;;5028359;28;20247;-68
2022/09/30 13:01:35;;;;;;;2.33;2.05;;;17.30;70.00;;;;;;5012303;28;20188;-67
2022/09/30 13:04:01;;;;;;;2.22;1.67;;;17.30;70.00;;;;;;5011944;28;20207;-68
2022/09/30 13:06:45;;;;;;;1.85;1.58;;;17.30;70.00;;;;;;4995253;28;20247;-68
2022/09/30 13:09:30;;;;;;;2.40;1.92;;;17.30;70.00;;;;;;5011738;28;20196;-68
2022/09/30 13:11:59;;;;;;;2.60;1.90;;;17.30;69.90;;;;;;5011504;28;20188;-68
2022/09/30 13:14:39;;;;;;;2.08;1.55;;;17.30;70.00;;;;;;4995320;28;20327;-68
2022/09/30 13:17:07;;;;;;;2.90;1.83;;;17.30;70.00;;;;;;5011533;28;20184;-68
2022/09/30 13:19:43;;;;;;;2.60;1.73;;;17.30;70.00;;;;;;4995061;28;20220;-68
2022/09/30 13:22:23;;;;;;;2.45;1.67;;;17.30;70.00;;;;;;5011528;28;20194;-68
2022/09/30 13:25:03;;;;;;;2.03;1.67;;;17.30;70.00;;;;;;4995178;28;20187;-68
2022/09/30 13:27:57;;;;;;;2.88;2.13;;;17.30;70.00;;;;;;5011496;28;20278;-68
2022/09/30 13:30:25;;;;;;;2.40;2.00;;;17.30;70.00;;;;;;4997537;28;20227;-68
2022/09/30 13:32:56;;;;;;;2.97;1.88;;;17.30;70.00;;;;;;5011852;28;20215;-67
2022/09/30 13:35:47;;;;;;;2.38;1.88;;;17.30;70.00;;;;;;5012902;28;20196;-67
2022/09/30 13:38:13;;;;;;;2.28;1.58;;;17.30;70.00;;;;;;5012898;28;20196;-68